sensor_id;sensor_type;location;lat;lon;timestamp;P1;durP1;ratioP1;P2;durP2;ratioP2
74074;SDS011;62428;51.412;5.432;2022-09-12T00:02:09;18.07;;;11.17;;
74074;SDS011;62428;51.412;5.432;2022-09-12T00:04:34;15.32;;;10.77;;
74074;SDS011;62428;51.412;5.432;2022-09-12T00:06:59;16.73;;;10.53;;
74074;SDS011;62428;51.412;5.432;2022-09-12T00:09:25;13.70;;;9.83;;
74074;SDS011;62428;51.412;5.432;2022-09-12T00:11:50;15.53;;;10.20;;
74074;SDS011;62428;51.412;5.432;2022-09-12T00:14:16;18.07;;;10.63;;
74074;SDS011;62428;51.412;5.432;2022-09-12T00:16:43;14.60;;;9.30;;
74074;SDS011;62428;51.412;5.432;2022-09-12T00:19:09;14.27;;;10.20;;
74074;SDS011;62428;51.412;5.432;2022-09-12T00:21:35;17.90;;;11.03;;
74074;SDS011;62428;51.412;5.432;2022-09-12T00:24:02;20.33;;;12.73;;
74074;SDS011;62428;51.412;5.432;2022-09-12T00:26:28;18.70;;;11.70;;
74074;SDS011;62428;51.412;5.432;2022-09-12T00:28:54;20.57;;;12.57;;
74074;SDS011;62428;51.412;5.432;2022-09-12T00:31:20;17.33;;;11.60;;
74074;SDS011;62428;51.412;5.432;2022-09-12T00:33:48;17.47;;;11.17;;
74074;SDS011;62428;51.412;5.432;2022-09-12T00:36:14;15.05;;;10.57;;
74074;SDS011;62428;51.412;5.432;2022-09-12T00:38:42;17.20;;;11.00;;
74074;SDS011;62428;51.412;5.432;2022-09-12T00:41:28;16.30;;;10.80;;
74074;SDS011;62428;51.412;5.432;2022-09-12T00:51:38;16.23;;;10.30;;
74074;SDS011;62428;51.412;5.432;2022-09-12T00:54:09;16.77;;;11.15;;
74074;SDS011;62428;51.412;5.432;2022-09-12T00:56:38;17.73;;;10.35;;
74074;SDS011;62428;51.412;5.432;2022-09-12T00:59:09;14.20;;;9.70;;
74074;SDS011;62428;51.412;5.432;2022-09-12T01:01:40;14.43;;;9.90;;
74074;SDS011;62428;51.412;5.432;2022-09-12T01:04:07;19.93;;;12.13;;
74074;SDS011;62428;51.412;5.432;2022-09-12T01:06:36;20.10;;;11.68;;
74074;SDS011;62428;51.412;5.432;2022-09-12T01:09:05;17.25;;;11.18;;
74074;SDS011;62428;51.412;5.432;2022-09-12T01:11:32;19.23;;;11.63;;
74074;SDS011;62428;51.412;5.432;2022-09-12T01:14:00;17.98;;;11.35;;
74074;SDS011;62428;51.412;5.432;2022-09-12T01:16:25;20.27;;;12.37;;
74074;SDS011;62428;51.412;5.432;2022-09-12T01:18:58;24.07;;;14.70;;
74074;SDS011;62428;51.412;5.432;2022-09-12T01:27:19;22.50;;;14.13;;
74074;SDS011;62428;51.412;5.432;2022-09-12T01:30:05;22.23;;;13.53;;
74074;SDS011;62428;51.412;5.432;2022-09-12T01:43:36;23.40;;;15.00;;
74074;SDS011;62428;51.412;5.432;2022-09-12T01:46:14;22.77;;;13.95;;
74074;SDS011;62428;51.412;5.432;2022-09-12T01:48:47;24.02;;;15.05;;
74074;SDS011;62428;51.412;5.432;2022-09-12T01:51:22;24.63;;;15.07;;
74074;SDS011;62428;51.412;5.432;2022-09-12T01:53:53;23.17;;;14.55;;
74074;SDS011;62428;51.412;5.432;2022-09-12T01:56:25;23.93;;;15.20;;
74074;SDS011;62428;51.412;5.432;2022-09-12T02:01:29;24.55;;;14.88;;
74074;SDS011;62428;51.412;5.432;2022-09-12T02:09:41;23.83;;;14.37;;
74074;SDS011;62428;51.412;5.432;2022-09-12T02:12:12;23.98;;;14.57;;
74074;SDS011;62428;51.412;5.432;2022-09-12T02:14:44;23.05;;;12.90;;
74074;SDS011;62428;51.412;5.432;2022-09-12T02:17:18;18.83;;;12.68;;
74074;SDS011;62428;51.412;5.432;2022-09-12T02:19:48;21.50;;;14.07;;
74074;SDS011;62428;51.412;5.432;2022-09-12T02:22:18;21.70;;;14.00;;
74074;SDS011;62428;51.412;5.432;2022-09-12T02:24:47;19.55;;;12.93;;
74074;SDS011;62428;51.412;5.432;2022-09-12T02:27:20;22.73;;;13.07;;
74074;SDS011;62428;51.412;5.432;2022-09-12T02:29:49;18.33;;;12.63;;
74074;SDS011;62428;51.412;5.432;2022-09-12T02:35:03;20.50;;;12.63;;
74074;SDS011;62428;51.412;5.432;2022-09-12T02:37:56;20.90;;;13.00;;
74074;SDS011;62428;51.412;5.432;2022-09-12T02:40:28;21.15;;;13.85;;
74074;SDS011;62428;51.412;5.432;2022-09-12T02:42:54;22.10;;;14.30;;
74074;SDS011;62428;51.412;5.432;2022-09-12T02:45:20;27.83;;;16.03;;
74074;SDS011;62428;51.412;5.432;2022-09-12T02:50:31;19.55;;;12.57;;
74074;SDS011;62428;51.412;5.432;2022-09-12T02:52:56;20.00;;;13.07;;
74074;SDS011;62428;51.412;5.432;2022-09-12T02:55:27;20.88;;;12.90;;
74074;SDS011;62428;51.412;5.432;2022-09-12T02:57:55;22.23;;;12.52;;
74074;SDS011;62428;51.412;5.432;2022-09-12T03:00:20;20.07;;;13.13;;
74074;SDS011;62428;51.412;5.432;2022-09-12T03:05:39;20.60;;;13.68;;
74074;SDS011;62428;51.412;5.432;2022-09-12T03:11:22;25.92;;;13.60;;
74074;SDS011;62428;51.412;5.432;2022-09-12T03:17:06;21.92;;;13.35;;
74074;SDS011;62428;51.412;5.432;2022-09-12T03:19:47;25.50;;;14.35;;
74074;SDS011;62428;51.412;5.432;2022-09-12T03:22:39;18.45;;;12.02;;
74074;SDS011;62428;51.412;5.432;2022-09-12T03:27:56;20.73;;;13.35;;
74074;SDS011;62428;51.412;5.432;2022-09-12T03:30:25;25.20;;;14.43;;
74074;SDS011;62428;51.412;5.432;2022-09-12T03:32:52;23.50;;;13.53;;
74074;SDS011;62428;51.412;5.432;2022-09-12T03:35:19;19.88;;;13.35;;
74074;SDS011;62428;51.412;5.432;2022-09-12T03:37:47;20.35;;;13.32;;
74074;SDS011;62428;51.412;5.432;2022-09-12T03:40:15;20.52;;;12.73;;
74074;SDS011;62428;51.412;5.432;2022-09-12T03:42:40;23.57;;;13.17;;
74074;SDS011;62428;51.412;5.432;2022-09-12T03:45:06;21.85;;;12.88;;
74074;SDS011;62428;51.412;5.432;2022-09-12T03:47:33;22.57;;;13.33;;
74074;SDS011;62428;51.412;5.432;2022-09-12T03:49:59;23.77;;;13.82;;
74074;SDS011;62428;51.412;5.432;2022-09-12T03:52:25;19.63;;;12.10;;
74074;SDS011;62428;51.412;5.432;2022-09-12T03:54:50;20.77;;;13.53;;
74074;SDS011;62428;51.412;5.432;2022-09-12T03:57:15;20.87;;;12.83;;
74074;SDS011;62428;51.412;5.432;2022-09-12T03:59:41;19.48;;;12.90;;
74074;SDS011;62428;51.412;5.432;2022-09-12T04:02:06;18.97;;;12.20;;
74074;SDS011;62428;51.412;5.432;2022-09-12T04:04:33;22.27;;;12.43;;
74074;SDS011;62428;51.412;5.432;2022-09-12T04:06:59;22.05;;;12.57;;
74074;SDS011;62428;51.412;5.432;2022-09-12T04:09:24;18.23;;;11.33;;
74074;SDS011;62428;51.412;5.432;2022-09-12T04:11:49;20.83;;;12.47;;
74074;SDS011;62428;51.412;5.432;2022-09-12T04:14:15;21.63;;;13.10;;
74074;SDS011;62428;51.412;5.432;2022-09-12T04:16:40;20.30;;;12.97;;
74074;SDS011;62428;51.412;5.432;2022-09-12T04:19:05;23.90;;;12.90;;
74074;SDS011;62428;51.412;5.432;2022-09-12T04:21:31;19.57;;;12.77;;
74074;SDS011;62428;51.412;5.432;2022-09-12T04:23:56;20.17;;;12.23;;
74074;SDS011;62428;51.412;5.432;2022-09-12T04:26:21;21.57;;;12.60;;
74074;SDS011;62428;51.412;5.432;2022-09-12T04:28:47;24.30;;;13.40;;
74074;SDS011;62428;51.412;5.432;2022-09-12T04:31:17;20.85;;;13.00;;
74074;SDS011;62428;51.412;5.432;2022-09-12T04:33:44;21.42;;;13.43;;
74074;SDS011;62428;51.412;5.432;2022-09-12T04:36:14;20.37;;;13.23;;
74074;SDS011;62428;51.412;5.432;2022-09-12T04:38:44;20.50;;;12.80;;
74074;SDS011;62428;51.412;5.432;2022-09-12T04:41:12;22.35;;;12.57;;
74074;SDS011;62428;51.412;5.432;2022-09-12T04:43:39;21.45;;;12.60;;
74074;SDS011;62428;51.412;5.432;2022-09-12T04:46:09;22.25;;;13.82;;
74074;SDS011;62428;51.412;5.432;2022-09-12T04:48:36;24.73;;;12.80;;
74074;SDS011;62428;51.412;5.432;2022-09-12T04:51:08;22.98;;;13.52;;
74074;SDS011;62428;51.412;5.432;2022-09-12T04:53:37;25.55;;;14.25;;
74074;SDS011;62428;51.412;5.432;2022-09-12T04:56:03;24.53;;;13.50;;
74074;SDS011;62428;51.412;5.432;2022-09-12T04:58:30;23.42;;;13.38;;
74074;SDS011;62428;51.412;5.432;2022-09-12T05:01:14;21.70;;;13.40;;
74074;SDS011;62428;51.412;5.432;2022-09-12T05:03:41;23.13;;;13.10;;
74074;SDS011;62428;51.412;5.432;2022-09-12T05:06:09;21.63;;;13.23;;
74074;SDS011;62428;51.412;5.432;2022-09-12T05:08:39;23.30;;;13.40;;
74074;SDS011;62428;51.412;5.432;2022-09-12T05:11:06;22.73;;;14.32;;
74074;SDS011;62428;51.412;5.432;2022-09-12T05:13:34;25.23;;;14.03;;
74074;SDS011;62428;51.412;5.432;2022-09-12T05:16:00;22.77;;;14.23;;
74074;SDS011;62428;51.412;5.432;2022-09-12T05:18:27;26.08;;;14.30;;
74074;SDS011;62428;51.412;5.432;2022-09-12T05:20:53;24.73;;;14.23;;
74074;SDS011;62428;51.412;5.432;2022-09-12T05:23:19;26.52;;;14.48;;
74074;SDS011;62428;51.412;5.432;2022-09-12T05:25:48;23.83;;;14.68;;
74074;SDS011;62428;51.412;5.432;2022-09-12T05:28:18;21.92;;;13.32;;
74074;SDS011;62428;51.412;5.432;2022-09-12T05:30:44;26.13;;;13.90;;
74074;SDS011;62428;51.412;5.432;2022-09-12T05:33:10;24.77;;;14.43;;
74074;SDS011;62428;51.412;5.432;2022-09-12T05:35:36;23.70;;;13.93;;
74074;SDS011;62428;51.412;5.432;2022-09-12T05:38:05;26.20;;;15.00;;
74074;SDS011;62428;51.412;5.432;2022-09-12T05:40:31;27.13;;;14.55;;
74074;SDS011;62428;51.412;5.432;2022-09-12T05:42:57;30.07;;;15.07;;
74074;SDS011;62428;51.412;5.432;2022-09-12T05:45:22;26.90;;;14.50;;
74074;SDS011;62428;51.412;5.432;2022-09-12T05:47:47;27.47;;;14.80;;
74074;SDS011;62428;51.412;5.432;2022-09-12T05:50:13;26.98;;;15.70;;
74074;SDS011;62428;51.412;5.432;2022-09-12T05:52:39;24.77;;;14.47;;
74074;SDS011;62428;51.412;5.432;2022-09-12T05:55:04;23.67;;;14.80;;
74074;SDS011;62428;51.412;5.432;2022-09-12T05:57:30;25.67;;;14.43;;
74074;SDS011;62428;51.412;5.432;2022-09-12T05:59:55;26.37;;;14.43;;
74074;SDS011;62428;51.412;5.432;2022-09-12T06:02:21;26.43;;;15.03;;
74074;SDS011;62428;51.412;5.432;2022-09-12T06:04:46;30.07;;;15.17;;
74074;SDS011;62428;51.412;5.432;2022-09-12T06:07:11;24.23;;;14.57;;
74074;SDS011;62428;51.412;5.432;2022-09-12T06:09:37;24.90;;;14.57;;
74074;SDS011;62428;51.412;5.432;2022-09-12T06:12:03;26.40;;;14.73;;
74074;SDS011;62428;51.412;5.432;2022-09-12T06:14:28;23.05;;;14.07;;
74074;SDS011;62428;51.412;5.432;2022-09-12T06:16:54;25.17;;;14.93;;
74074;SDS011;62428;51.412;5.432;2022-09-12T06:19:19;25.20;;;14.57;;
74074;SDS011;62428;51.412;5.432;2022-09-12T06:21:46;24.52;;;15.15;;
74074;SDS011;62428;51.412;5.432;2022-09-12T06:24:13;24.52;;;14.38;;
74074;SDS011;62428;51.412;5.432;2022-09-12T06:26:39;25.80;;;14.85;;
74074;SDS011;62428;51.412;5.432;2022-09-12T06:29:05;26.80;;;14.97;;
74074;SDS011;62428;51.412;5.432;2022-09-12T06:31:33;25.10;;;14.10;;
74074;SDS011;62428;51.412;5.432;2022-09-12T06:34:01;24.85;;;15.02;;
74074;SDS011;62428;51.412;5.432;2022-09-12T06:36:36;24.98;;;15.23;;
74074;SDS011;62428;51.412;5.432;2022-09-12T06:39:10;23.52;;;15.18;;
74074;SDS011;62428;51.412;5.432;2022-09-12T06:41:37;25.87;;;15.30;;
74074;SDS011;62428;51.412;5.432;2022-09-12T06:44:03;31.13;;;15.23;;
74074;SDS011;62428;51.412;5.432;2022-09-12T06:46:28;25.13;;;14.87;;
74074;SDS011;62428;51.412;5.432;2022-09-12T06:48:55;27.10;;;15.25;;
74074;SDS011;62428;51.412;5.432;2022-09-12T06:51:21;25.00;;;15.07;;
74074;SDS011;62428;51.412;5.432;2022-09-12T06:53:47;23.90;;;14.97;;
74074;SDS011;62428;51.412;5.432;2022-09-12T06:56:14;27.70;;;15.43;;
74074;SDS011;62428;51.412;5.432;2022-09-12T06:58:41;25.08;;;14.98;;
74074;SDS011;62428;51.412;5.432;2022-09-12T07:01:08;21.98;;;14.48;;
74074;SDS011;62428;51.412;5.432;2022-09-12T07:03:36;23.63;;;14.73;;
74074;SDS011;62428;51.412;5.432;2022-09-12T07:06:03;31.77;;;15.10;;
74074;SDS011;62428;51.412;5.432;2022-09-12T07:08:30;24.92;;;14.55;;
74074;SDS011;62428;51.412;5.432;2022-09-12T07:10:57;23.55;;;14.60;;
74074;SDS011;62428;51.412;5.432;2022-09-12T07:13:25;25.52;;;14.48;;
74074;SDS011;62428;51.412;5.432;2022-09-12T07:15:50;23.43;;;14.17;;
74074;SDS011;62428;51.412;5.432;2022-09-12T07:18:16;23.37;;;14.77;;
74074;SDS011;62428;51.412;5.432;2022-09-12T07:20:42;23.33;;;14.73;;
74074;SDS011;62428;51.412;5.432;2022-09-12T07:23:07;23.27;;;13.77;;
74074;SDS011;62428;51.412;5.432;2022-09-12T07:25:33;23.98;;;14.82;;
74074;SDS011;62428;51.412;5.432;2022-09-12T07:27:58;22.73;;;14.63;;
74074;SDS011;62428;51.412;5.432;2022-09-12T07:30:24;22.80;;;14.70;;
74074;SDS011;62428;51.412;5.432;2022-09-12T07:32:52;23.73;;;15.70;;
74074;SDS011;62428;51.412;5.432;2022-09-12T07:35:19;23.58;;;15.15;;
74074;SDS011;62428;51.412;5.432;2022-09-12T07:37:45;23.77;;;15.50;;
74074;SDS011;62428;51.412;5.432;2022-09-12T07:40:11;23.20;;;14.70;;
74074;SDS011;62428;51.412;5.432;2022-09-12T07:42:36;28.90;;;16.00;;
74074;SDS011;62428;51.412;5.432;2022-09-12T07:45:01;24.27;;;14.80;;
74074;SDS011;62428;51.412;5.432;2022-09-12T07:47:27;22.75;;;13.68;;
74074;SDS011;62428;51.412;5.432;2022-09-12T07:49:52;21.63;;;14.07;;
74074;SDS011;62428;51.412;5.432;2022-09-12T07:52:17;22.20;;;14.30;;
74074;SDS011;62428;51.412;5.432;2022-09-12T07:54:43;27.47;;;14.77;;
74074;SDS011;62428;51.412;5.432;2022-09-12T07:57:08;20.97;;;14.00;;
74074;SDS011;62428;51.412;5.432;2022-09-12T07:59:34;19.45;;;13.13;;
74074;SDS011;62428;51.412;5.432;2022-09-12T08:01:59;24.10;;;12.77;;
74074;SDS011;62428;51.412;5.432;2022-09-12T08:04:24;18.37;;;12.83;;
74074;SDS011;62428;51.412;5.432;2022-09-12T08:06:50;18.60;;;12.90;;
74074;SDS011;62428;51.412;5.432;2022-09-12T08:09:15;19.47;;;12.67;;
74074;SDS011;62428;51.412;5.432;2022-09-12T08:11:41;19.77;;;12.90;;
74074;SDS011;62428;51.412;5.432;2022-09-12T08:14:07;20.50;;;13.07;;
74074;SDS011;62428;51.412;5.432;2022-09-12T08:16:33;21.23;;;12.20;;
74074;SDS011;62428;51.412;5.432;2022-09-12T08:18:59;17.00;;;12.50;;
74074;SDS011;62428;51.412;5.432;2022-09-12T08:21:27;20.92;;;12.40;;
74074;SDS011;62428;51.412;5.432;2022-09-12T08:23:55;20.75;;;12.27;;
74074;SDS011;62428;51.412;5.432;2022-09-12T08:26:22;22.17;;;11.47;;
74074;SDS011;62428;51.412;5.432;2022-09-12T08:28:48;17.58;;;11.80;;
74074;SDS011;62428;51.412;5.432;2022-09-12T08:31:15;18.92;;;11.52;;
74074;SDS011;62428;51.412;5.432;2022-09-12T08:33:42;18.63;;;12.13;;
74074;SDS011;62428;51.412;5.432;2022-09-12T08:38:37;16.08;;;11.55;;
74074;SDS011;62428;51.412;5.432;2022-09-12T08:46:26;15.67;;;11.23;;
74074;SDS011;62428;51.412;5.432;2022-09-12T08:48:59;19.17;;;11.60;;
74074;SDS011;62428;51.412;5.432;2022-09-12T08:51:26;15.27;;;10.30;;
74074;SDS011;62428;51.412;5.432;2022-09-12T08:53:53;16.15;;;10.73;;
74074;SDS011;62428;51.412;5.432;2022-09-12T08:56:21;13.88;;;10.30;;
74074;SDS011;62428;51.412;5.432;2022-09-12T08:58:47;15.70;;;10.53;;
74074;SDS011;62428;51.412;5.432;2022-09-12T09:15:02;16.20;;;9.60;;
74074;SDS011;62428;51.412;5.432;2022-09-12T09:17:42;13.27;;;9.57;;
74074;SDS011;62428;51.412;5.432;2022-09-12T09:25:58;12.77;;;8.27;;
74074;SDS011;62428;51.412;5.432;2022-09-12T09:31:12;13.82;;;8.10;;
74074;SDS011;62428;51.412;5.432;2022-09-12T09:33:40;11.50;;;8.30;;
74074;SDS011;62428;51.412;5.432;2022-09-12T09:39:12;13.35;;;7.85;;
74074;SDS011;62428;51.412;5.432;2022-09-12T09:44:31;11.82;;;7.57;;
74074;SDS011;62428;51.412;5.432;2022-09-12T09:46:57;12.07;;;6.85;;
74074;SDS011;62428;51.412;5.432;2022-09-12T09:49:25;10.83;;;6.80;;
74074;SDS011;62428;51.412;5.432;2022-09-12T09:51:54;11.48;;;6.82;;
74074;SDS011;62428;51.412;5.432;2022-09-12T09:56:55;8.60;;;6.55;;
74074;SDS011;62428;51.412;5.432;2022-09-12T09:59:28;12.23;;;7.00;;
74074;SDS011;62428;51.412;5.432;2022-09-12T10:01:56;9.18;;;5.97;;
74074;SDS011;62428;51.412;5.432;2022-09-12T10:04:28;7.85;;;6.10;;
74074;SDS011;62428;51.412;5.432;2022-09-12T10:06:56;9.10;;;5.93;;
74074;SDS011;62428;51.412;5.432;2022-09-12T10:09:29;7.70;;;5.85;;
74074;SDS011;62428;51.412;5.432;2022-09-12T10:11:59;8.98;;;5.80;;
74074;SDS011;62428;51.412;5.432;2022-09-12T10:17:19;9.15;;;5.18;;
74074;SDS011;62428;51.412;5.432;2022-09-12T10:19:49;9.93;;;4.93;;
74074;SDS011;62428;51.412;5.432;2022-09-12T10:22:16;6.57;;;4.85;;
74074;SDS011;62428;51.412;5.432;2022-09-12T10:24:48;8.65;;;5.00;;
74074;SDS011;62428;51.412;5.432;2022-09-12T10:27:50;7.40;;;4.75;;
74074;SDS011;62428;51.412;5.432;2022-09-12T10:30:18;10.17;;;5.17;;
74074;SDS011;62428;51.412;5.432;2022-09-12T10:32:47;8.98;;;4.45;;
74074;SDS011;62428;51.412;5.432;2022-09-12T10:35:16;11.98;;;4.60;;
74074;SDS011;62428;51.412;5.432;2022-09-12T10:37:49;11.07;;;4.60;;
74074;SDS011;62428;51.412;5.432;2022-09-12T10:40:27;11.18;;;5.28;;
74074;SDS011;62428;51.412;5.432;2022-09-12T10:42:59;9.07;;;4.63;;
74074;SDS011;62428;51.412;5.432;2022-09-12T10:47:55;11.00;;;4.47;;
74074;SDS011;62428;51.412;5.432;2022-09-12T10:50:27;6.03;;;3.90;;
74074;SDS011;62428;51.412;5.432;2022-09-12T10:53:19;8.95;;;3.95;;
74074;SDS011;62428;51.412;5.432;2022-09-12T10:58:42;4.55;;;2.55;;
74074;SDS011;62428;51.412;5.432;2022-09-12T11:01:35;3.75;;;2.15;;
74074;SDS011;62428;51.412;5.432;2022-09-12T11:10:04;3.23;;;2.33;;
74074;SDS011;62428;51.412;5.432;2022-09-12T11:12:37;3.97;;;2.25;;
74074;SDS011;62428;51.412;5.432;2022-09-12T11:39:55;2.80;;;2.22;;
74074;SDS011;62428;51.412;5.432;2022-09-12T11:42:31;3.90;;;2.40;;
74074;SDS011;62428;51.412;5.432;2022-09-12T11:45:18;3.40;;;2.50;;
74074;SDS011;62428;51.412;5.432;2022-09-12T11:47:51;5.57;;;2.30;;
74074;SDS011;62428;51.412;5.432;2022-09-12T11:50:25;5.57;;;2.53;;
74074;SDS011;62428;51.412;5.432;2022-09-12T11:53:16;3.30;;;2.25;;
74074;SDS011;62428;51.412;5.432;2022-09-12T11:55:47;3.43;;;2.50;;
74074;SDS011;62428;51.412;5.432;2022-09-12T11:58:21;5.68;;;2.80;;
74074;SDS011;62428;51.412;5.432;2022-09-12T12:00:50;3.67;;;2.25;;
74074;SDS011;62428;51.412;5.432;2022-09-12T12:06:21;4.30;;;2.00;;
74074;SDS011;62428;51.412;5.432;2022-09-12T12:09:09;2.83;;;1.83;;
74074;SDS011;62428;51.412;5.432;2022-09-12T12:11:41;3.63;;;2.28;;
74074;SDS011;62428;51.412;5.432;2022-09-12T12:14:18;4.97;;;1.90;;
74074;SDS011;62428;51.412;5.432;2022-09-12T12:16:47;5.28;;;1.65;;
74074;SDS011;62428;51.412;5.432;2022-09-12T12:24:12;4.23;;;2.07;;
74074;SDS011;62428;51.412;5.432;2022-09-12T12:27:23;5.00;;;2.40;;
74074;SDS011;62428;51.412;5.432;2022-09-12T12:29:46;4.30;;;2.00;;
74074;SDS011;62428;51.412;5.432;2022-09-12T12:34:40;3.05;;;1.85;;
74074;SDS011;62428;51.412;5.432;2022-09-12T12:39:57;5.03;;;2.05;;
74074;SDS011;62428;51.412;5.432;2022-09-12T12:48:00;5.45;;;2.08;;
74074;SDS011;62428;51.412;5.432;2022-09-12T12:50:32;3.58;;;1.85;;
74074;SDS011;62428;51.412;5.432;2022-09-12T12:53:17;4.22;;;1.98;;
74074;SDS011;62428;51.412;5.432;2022-09-12T12:55:47;4.83;;;2.00;;
74074;SDS011;62428;51.412;5.432;2022-09-12T12:58:37;3.67;;;1.90;;
74074;SDS011;62428;51.412;5.432;2022-09-12T13:01:20;4.72;;;2.03;;
74074;SDS011;62428;51.412;5.432;2022-09-12T13:03:54;2.83;;;1.80;;
74074;SDS011;62428;51.412;5.432;2022-09-12T13:08:59;2.53;;;1.33;;
74074;SDS011;62428;51.412;5.432;2022-09-12T13:11:29;1.88;;;1.38;;
74074;SDS011;62428;51.412;5.432;2022-09-12T13:13:58;6.03;;;1.40;;
74074;SDS011;62428;51.412;5.432;2022-09-12T13:19:01;2.75;;;1.40;;
74074;SDS011;62428;51.412;5.432;2022-09-12T13:21:29;3.93;;;1.50;;
74074;SDS011;62428;51.412;5.432;2022-09-12T13:23:58;1.98;;;1.30;;
74074;SDS011;62428;51.412;5.432;2022-09-12T13:26:26;3.15;;;1.65;;
74074;SDS011;62428;51.412;5.432;2022-09-12T13:31:46;4.20;;;1.48;;
74074;SDS011;62428;51.412;5.432;2022-09-12T13:34:16;3.83;;;1.83;;
74074;SDS011;62428;51.412;5.432;2022-09-12T13:45:08;3.15;;;1.60;;
74074;SDS011;62428;51.412;5.432;2022-09-12T13:47:39;3.33;;;1.38;;
74074;SDS011;62428;51.412;5.432;2022-09-12T13:50:07;2.45;;;1.45;;
74074;SDS011;62428;51.412;5.432;2022-09-12T13:52:38;2.85;;;1.65;;
74074;SDS011;62428;51.412;5.432;2022-09-12T13:55:05;2.13;;;1.67;;
74074;SDS011;62428;51.412;5.432;2022-09-12T13:57:34;1.67;;;1.58;;
74074;SDS011;62428;51.412;5.432;2022-09-12T14:00:06;3.53;;;1.80;;
74074;SDS011;62428;51.412;5.432;2022-09-12T14:02:43;3.13;;;1.90;;
74074;SDS011;62428;51.412;5.432;2022-09-12T14:05:22;2.43;;;1.80;;
74074;SDS011;62428;51.412;5.432;2022-09-12T14:10:26;1.63;;;1.53;;
74074;SDS011;62428;51.412;5.432;2022-09-12T14:13:07;5.97;;;1.45;;
74074;SDS011;62428;51.412;5.432;2022-09-12T14:15:36;3.78;;;2.00;;
74074;SDS011;62428;51.412;5.432;2022-09-12T14:18:03;4.00;;;1.50;;
74074;SDS011;62428;51.412;5.432;2022-09-12T14:20:31;2.75;;;1.50;;
74074;SDS011;62428;51.412;5.432;2022-09-12T14:23:02;2.47;;;1.50;;
74074;SDS011;62428;51.412;5.432;2022-09-12T14:25:33;3.47;;;1.77;;
74074;SDS011;62428;51.412;5.432;2022-09-12T14:28:03;2.63;;;1.70;;
74074;SDS011;62428;51.412;5.432;2022-09-12T14:30:33;2.60;;;1.52;;
74074;SDS011;62428;51.412;5.432;2022-09-12T14:35:34;4.03;;;1.60;;
74074;SDS011;62428;51.412;5.432;2022-09-12T14:38:06;3.85;;;1.70;;
74074;SDS011;62428;51.412;5.432;2022-09-12T14:40:58;3.15;;;1.45;;
74074;SDS011;62428;51.412;5.432;2022-09-12T14:43:26;3.00;;;1.70;;
74074;SDS011;62428;51.412;5.432;2022-09-12T14:45:55;5.70;;;1.90;;
74074;SDS011;62428;51.412;5.432;2022-09-12T14:48:23;3.83;;;1.77;;
74074;SDS011;62428;51.412;5.432;2022-09-12T14:50:50;5.90;;;1.60;;
74074;SDS011;62428;51.412;5.432;2022-09-12T14:55:54;2.10;;;1.53;;
74074;SDS011;62428;51.412;5.432;2022-09-12T14:58:24;2.92;;;1.40;;
74074;SDS011;62428;51.412;5.432;2022-09-12T15:08:50;2.92;;;1.80;;
74074;SDS011;62428;51.412;5.432;2022-09-12T15:11:17;2.63;;;1.63;;
74074;SDS011;62428;51.412;5.432;2022-09-12T15:13:42;2.50;;;1.67;;
74074;SDS011;62428;51.412;5.432;2022-09-12T15:16:08;3.53;;;1.60;;
74074;SDS011;62428;51.412;5.432;2022-09-12T15:18:35;3.40;;;1.38;;
74074;SDS011;62428;51.412;5.432;2022-09-12T15:21:02;3.63;;;1.80;;
74074;SDS011;62428;51.412;5.432;2022-09-12T15:23:30;2.97;;;1.70;;
74074;SDS011;62428;51.412;5.432;2022-09-12T15:26:02;2.60;;;1.50;;
74074;SDS011;62428;51.412;5.432;2022-09-12T15:28:28;2.70;;;1.60;;
74074;SDS011;62428;51.412;5.432;2022-09-12T15:30:55;5.43;;;1.67;;
74074;SDS011;62428;51.412;5.432;2022-09-12T15:33:22;1.67;;;1.15;;
74074;SDS011;62428;51.412;5.432;2022-09-12T15:35:49;4.28;;;1.42;;
74074;SDS011;62428;51.412;5.432;2022-09-12T15:38:16;2.28;;;1.40;;
74074;SDS011;62428;51.412;5.432;2022-09-12T15:40:42;3.15;;;1.60;;
74074;SDS011;62428;51.412;5.432;2022-09-12T15:43:09;3.70;;;1.70;;
74074;SDS011;62428;51.412;5.432;2022-09-12T15:45:36;3.92;;;1.67;;
74074;SDS011;62428;51.412;5.432;2022-09-12T15:48:01;2.33;;;1.37;;
74074;SDS011;62428;51.412;5.432;2022-09-12T15:50:27;6.27;;;1.67;;
74074;SDS011;62428;51.412;5.432;2022-09-12T15:52:53;5.63;;;1.60;;
74074;SDS011;62428;51.412;5.432;2022-09-12T15:57:47;3.67;;;1.42;;
74074;SDS011;62428;51.412;5.432;2022-09-12T16:00:13;2.40;;;1.40;;
74074;SDS011;62428;51.412;5.432;2022-09-12T16:02:39;3.80;;;1.35;;
74074;SDS011;62428;51.412;5.432;2022-09-12T16:05:05;2.77;;;1.63;;
74074;SDS011;62428;51.412;5.432;2022-09-12T16:07:37;3.25;;;1.33;;
74074;SDS011;62428;51.412;5.432;2022-09-12T16:10:03;3.73;;;1.47;;
74074;SDS011;62428;51.412;5.432;2022-09-12T16:12:28;2.72;;;1.42;;
74074;SDS011;62428;51.412;5.432;2022-09-12T16:14:53;2.07;;;1.43;;
74074;SDS011;62428;51.412;5.432;2022-09-12T16:17:19;2.90;;;1.40;;
74074;SDS011;62428;51.412;5.432;2022-09-12T16:19:44;2.63;;;1.30;;
74074;SDS011;62428;51.412;5.432;2022-09-12T16:22:09;1.70;;;1.30;;
74074;SDS011;62428;51.412;5.432;2022-09-12T16:24:35;7.20;;;1.30;;
74074;SDS011;62428;51.412;5.432;2022-09-12T16:27:00;2.60;;;1.40;;
74074;SDS011;62428;51.412;5.432;2022-09-12T16:29:25;4.00;;;1.60;;
74074;SDS011;62428;51.412;5.432;2022-09-12T16:31:51;2.97;;;1.30;;
74074;SDS011;62428;51.412;5.432;2022-09-12T16:34:16;2.58;;;1.35;;
74074;SDS011;62428;51.412;5.432;2022-09-12T16:36:41;3.00;;;1.47;;
74074;SDS011;62428;51.412;5.432;2022-09-12T16:39:09;3.17;;;1.30;;
74074;SDS011;62428;51.412;5.432;2022-09-12T16:41:34;1.70;;;1.10;;
74074;SDS011;62428;51.412;5.432;2022-09-12T16:43:59;1.97;;;1.10;;
74074;SDS011;62428;51.412;5.432;2022-09-12T16:46:26;1.47;;;1.20;;
74074;SDS011;62428;51.412;5.432;2022-09-12T16:48:53;1.90;;;1.25;;
74074;SDS011;62428;51.412;5.432;2022-09-12T16:51:21;2.13;;;1.23;;
74074;SDS011;62428;51.412;5.432;2022-09-12T16:53:49;3.60;;;1.38;;
74074;SDS011;62428;51.412;5.432;2022-09-12T16:56:15;1.90;;;1.27;;
74074;SDS011;62428;51.412;5.432;2022-09-12T16:58:41;2.20;;;1.40;;
74074;SDS011;62428;51.412;5.432;2022-09-12T17:01:10;3.63;;;1.10;;
74074;SDS011;62428;51.412;5.432;2022-09-12T17:03:39;2.13;;;1.15;;
74074;SDS011;62428;51.412;5.432;2022-09-12T17:06:05;4.87;;;1.10;;
74074;SDS011;62428;51.412;5.432;2022-09-12T17:08:34;3.80;;;1.42;;
74074;SDS011;62428;51.412;5.432;2022-09-12T17:12:02;6.87;;;1.10;;
74074;SDS011;62428;51.412;5.432;2022-09-12T17:13:58;4.07;;;1.30;;
74074;SDS011;62428;51.412;5.432;2022-09-12T17:16:25;2.63;;;1.25;;
74074;SDS011;62428;51.412;5.432;2022-09-12T17:18:52;3.88;;;1.35;;
74074;SDS011;62428;51.412;5.432;2022-09-12T17:21:18;2.15;;;1.20;;
74074;SDS011;62428;51.412;5.432;2022-09-12T17:23:44;2.80;;;1.30;;
74074;SDS011;62428;51.412;5.432;2022-09-12T17:26:09;2.63;;;1.08;;
74074;SDS011;62428;51.412;5.432;2022-09-12T17:28:36;2.72;;;1.20;;
74074;SDS011;62428;51.412;5.432;2022-09-12T17:31:05;2.13;;;1.20;;
74074;SDS011;62428;51.412;5.432;2022-09-12T17:33:35;2.05;;;1.10;;
74074;SDS011;62428;51.412;5.432;2022-09-12T17:36:01;4.45;;;1.33;;
74074;SDS011;62428;51.412;5.432;2022-09-12T17:38:32;3.88;;;1.27;;
74074;SDS011;62428;51.412;5.432;2022-09-12T17:41:08;5.72;;;1.33;;
74074;SDS011;62428;51.412;5.432;2022-09-12T17:43:45;2.23;;;1.60;;
74074;SDS011;62428;51.412;5.432;2022-09-12T17:46:13;1.98;;;1.40;;